sensor_id;sensor_type;location;lat;lon;timestamp;P1;durP1;ratioP1;P2;durP2;ratioP2
17345;SDS011;8790;53.590;10.002;2022-10-28T00:02:00;9.47;;;5.33;;
17345;SDS011;8790;53.590;10.002;2022-10-28T00:04:32;6.97;;;5.40;;
17345;SDS011;8790;53.590;10.002;2022-10-28T00:07:03;8.07;;;5.17;;
17345;SDS011;8790;53.590;10.002;2022-10-28T00:09:35;6.47;;;5.40;;
17345;SDS011;8790;53.590;10.002;2022-10-28T00:12:07;9.03;;;5.13;;
17345;SDS011;8790;53.590;10.002;2022-10-28T00:14:39;10.90;;;5.10;;
17345;SDS011;8790;53.590;10.002;2022-10-28T00:17:12;9.80;;;5.40;;
17345;SDS011;8790;53.590;10.002;2022-10-28T00:19:44;10.70;;;5.70;;
17345;SDS011;8790;53.590;10.002;2022-10-28T00:22:15;7.77;;;5.50;;
17345;SDS011;8790;53.590;10.002;2022-10-28T00:24:47;8.63;;;5.30;;
17345;SDS011;8790;53.590;10.002;2022-10-28T00:27:19;7.87;;;5.40;;
17345;SDS011;8790;53.590;10.002;2022-10-28T00:29:50;7.97;;;5.33;;
17345;SDS011;8790;53.590;10.002;2022-10-28T00:32:23;11.13;;;5.90;;
17345;SDS011;8790;53.590;10.002;2022-10-28T00:34:57;9.13;;;5.60;;
17345;SDS011;8790;53.590;10.002;2022-10-28T00:37:31;7.63;;;5.27;;
17345;SDS011;8790;53.590;10.002;2022-10-28T00:40:03;6.77;;;5.57;;
17345;SDS011;8790;53.590;10.002;2022-10-28T00:42:35;7.90;;;5.60;;
17345;SDS011;8790;53.590;10.002;2022-10-28T00:45:07;9.83;;;5.40;;
17345;SDS011;8790;53.590;10.002;2022-10-28T00:47:42;8.70;;;5.33;;
17345;SDS011;8790;53.590;10.002;2022-10-28T00:50:25;6.63;;;5.13;;
17345;SDS011;8790;53.590;10.002;2022-10-28T00:53:11;6.10;;;5.50;;
17345;SDS011;8790;53.590;10.002;2022-10-28T00:55:45;9.67;;;5.53;;
17345;SDS011;8790;53.590;10.002;2022-10-28T00:58:19;8.30;;;5.43;;
17345;SDS011;8790;53.590;10.002;2022-10-28T01:00:52;10.00;;;5.90;;
17345;SDS011;8790;53.590;10.002;2022-10-28T01:03:27;7.07;;;5.70;;
17345;SDS011;8790;53.590;10.002;2022-10-28T01:05:58;7.37;;;5.30;;
17345;SDS011;8790;53.590;10.002;2022-10-28T01:08:41;8.33;;;5.67;;
17345;SDS011;8790;53.590;10.002;2022-10-28T01:11:23;6.80;;;5.27;;
17345;SDS011;8790;53.590;10.002;2022-10-28T01:14:10;9.07;;;5.47;;
17345;SDS011;8790;53.590;10.002;2022-10-28T01:16:52;8.87;;;6.37;;
17345;SDS011;8790;53.590;10.002;2022-10-28T01:22:46;9.83;;;5.53;;
17345;SDS011;8790;53.590;10.002;2022-10-28T01:25:34;7.80;;;5.53;;
17345;SDS011;8790;53.590;10.002;2022-10-28T01:31:41;9.17;;;5.17;;
17345;SDS011;8790;53.590;10.002;2022-10-28T01:34:17;9.23;;;5.70;;
17345;SDS011;8790;53.590;10.002;2022-10-28T01:36:57;11.33;;;6.20;;
17345;SDS011;8790;53.590;10.002;2022-10-28T01:39:36;7.53;;;5.97;;
17345;SDS011;8790;53.590;10.002;2022-10-28T01:42:18;8.67;;;5.97;;
17345;SDS011;8790;53.590;10.002;2022-10-28T01:44:59;8.90;;;5.47;;
17345;SDS011;8790;53.590;10.002;2022-10-28T01:47:37;10.17;;;6.20;;
17345;SDS011;8790;53.590;10.002;2022-10-28T01:50:16;10.77;;;5.60;;
17345;SDS011;8790;53.590;10.002;2022-10-28T01:52:52;11.17;;;5.50;;
17345;SDS011;8790;53.590;10.002;2022-10-28T01:55:28;8.37;;;5.70;;
17345;SDS011;8790;53.590;10.002;2022-10-28T01:58:04;7.93;;;5.80;;
17345;SDS011;8790;53.590;10.002;2022-10-28T02:00:38;11.03;;;6.13;;
17345;SDS011;8790;53.590;10.002;2022-10-28T02:03:14;8.40;;;6.00;;
17345;SDS011;8790;53.590;10.002;2022-10-28T02:05:47;8.20;;;6.17;;
17345;SDS011;8790;53.590;10.002;2022-10-28T02:08:34;9.30;;;5.87;;
17345;SDS011;8790;53.590;10.002;2022-10-28T02:11:24;13.43;;;5.80;;
17345;SDS011;8790;53.590;10.002;2022-10-28T02:14:11;9.67;;;5.50;;
17345;SDS011;8790;53.590;10.002;2022-10-28T02:17:00;8.83;;;5.77;;
17345;SDS011;8790;53.590;10.002;2022-10-28T02:19:45;6.37;;;5.47;;
17345;SDS011;8790;53.590;10.002;2022-10-28T02:22:19;9.00;;;5.50;;
17345;SDS011;8790;53.590;10.002;2022-10-28T02:24:59;9.73;;;6.10;;
17345;SDS011;8790;53.590;10.002;2022-10-28T02:27:38;7.53;;;5.90;;
17345;SDS011;8790;53.590;10.002;2022-10-28T02:30:16;9.53;;;5.60;;
17345;SDS011;8790;53.590;10.002;2022-10-28T02:32:51;10.77;;;5.77;;
17345;SDS011;8790;53.590;10.002;2022-10-28T02:35:29;9.23;;;6.00;;
17345;SDS011;8790;53.590;10.002;2022-10-28T02:38:04;8.17;;;5.60;;
17345;SDS011;8790;53.590;10.002;2022-10-28T02:40:39;10.27;;;5.70;;
17345;SDS011;8790;53.590;10.002;2022-10-28T02:43:14;7.70;;;5.83;;
17345;SDS011;8790;53.590;10.002;2022-10-28T02:45:52;8.13;;;5.60;;
17345;SDS011;8790;53.590;10.002;2022-10-28T02:48:29;10.57;;;5.63;;
17345;SDS011;8790;53.590;10.002;2022-10-28T02:51:07;7.20;;;5.60;;
17345;SDS011;8790;53.590;10.002;2022-10-28T02:53:44;8.13;;;5.30;;
17345;SDS011;8790;53.590;10.002;2022-10-28T02:56:24;6.00;;;5.17;;
17345;SDS011;8790;53.590;10.002;2022-10-28T02:58:58;8.23;;;5.57;;
17345;SDS011;8790;53.590;10.002;2022-10-28T03:01:30;7.47;;;5.10;;
17345;SDS011;8790;53.590;10.002;2022-10-28T03:04:01;7.73;;;5.80;;
17345;SDS011;8790;53.590;10.002;2022-10-28T03:06:35;7.83;;;5.70;;
17345;SDS011;8790;53.590;10.002;2022-10-28T03:09:07;9.47;;;5.90;;
17345;SDS011;8790;53.590;10.002;2022-10-28T03:11:38;11.90;;;6.10;;
17345;SDS011;8790;53.590;10.002;2022-10-28T03:14:10;7.27;;;5.40;;
17345;SDS011;8790;53.590;10.002;2022-10-28T03:16:42;9.97;;;6.07;;
17345;SDS011;8790;53.590;10.002;2022-10-28T03:19:13;9.13;;;5.97;;
17345;SDS011;8790;53.590;10.002;2022-10-28T03:21:46;7.60;;;5.83;;
17345;SDS011;8790;53.590;10.002;2022-10-28T03:24:18;8.97;;;5.67;;
17345;SDS011;8790;53.590;10.002;2022-10-28T03:26:50;8.27;;;5.23;;
17345;SDS011;8790;53.590;10.002;2022-10-28T03:29:21;9.80;;;5.67;;
17345;SDS011;8790;53.590;10.002;2022-10-28T03:31:53;8.93;;;5.90;;
17345;SDS011;8790;53.590;10.002;2022-10-28T03:34:25;8.83;;;5.60;;
17345;SDS011;8790;53.590;10.002;2022-10-28T03:36:58;9.37;;;5.30;;
17345;SDS011;8790;53.590;10.002;2022-10-28T03:39:30;7.00;;;5.20;;
17345;SDS011;8790;53.590;10.002;2022-10-28T03:42:01;7.93;;;5.10;;
17345;SDS011;8790;53.590;10.002;2022-10-28T03:44:33;9.13;;;5.77;;
17345;SDS011;8790;53.590;10.002;2022-10-28T03:47:05;8.10;;;5.57;;
17345;SDS011;8790;53.590;10.002;2022-10-28T03:49:37;9.10;;;5.70;;
17345;SDS011;8790;53.590;10.002;2022-10-28T03:52:10;10.23;;;6.00;;
17345;SDS011;8790;53.590;10.002;2022-10-28T03:54:41;8.63;;;5.43;;
17345;SDS011;8790;53.590;10.002;2022-10-28T03:57:13;7.03;;;5.50;;
17345;SDS011;8790;53.590;10.002;2022-10-28T03:59:45;9.43;;;5.43;;
17345;SDS011;8790;53.590;10.002;2022-10-28T04:02:16;8.10;;;6.00;;
17345;SDS011;8790;53.590;10.002;2022-10-28T04:04:48;7.50;;;5.70;;
17345;SDS011;8790;53.590;10.002;2022-10-28T04:07:21;8.07;;;6.33;;
17345;SDS011;8790;53.590;10.002;2022-10-28T04:09:53;8.17;;;5.93;;
17345;SDS011;8790;53.590;10.002;2022-10-28T04:12:24;7.13;;;5.67;;
17345;SDS011;8790;53.590;10.002;2022-10-28T04:14:56;10.80;;;6.23;;
17345;SDS011;8790;53.590;10.002;2022-10-28T04:17:28;9.30;;;5.20;;
17345;SDS011;8790;53.590;10.002;2022-10-28T04:19:59;7.87;;;5.40;;
17345;SDS011;8790;53.590;10.002;2022-10-28T04:22:32;9.70;;;5.67;;
17345;SDS011;8790;53.590;10.002;2022-10-28T04:25:04;8.83;;;5.70;;
17345;SDS011;8790;53.590;10.002;2022-10-28T04:27:36;8.93;;;5.60;;
17345;SDS011;8790;53.590;10.002;2022-10-28T04:30:08;9.43;;;5.80;;
17345;SDS011;8790;53.590;10.002;2022-10-28T04:32:42;9.90;;;5.80;;
17345;SDS011;8790;53.590;10.002;2022-10-28T04:35:14;7.10;;;5.73;;
17345;SDS011;8790;53.590;10.002;2022-10-28T04:37:48;9.37;;;5.53;;
17345;SDS011;8790;53.590;10.002;2022-10-28T04:40:19;10.47;;;5.63;;
17345;SDS011;8790;53.590;10.002;2022-10-28T04:42:51;10.00;;;5.70;;
17345;SDS011;8790;53.590;10.002;2022-10-28T04:45:23;8.67;;;5.53;;
17345;SDS011;8790;53.590;10.002;2022-10-28T04:47:55;8.70;;;5.43;;
17345;SDS011;8790;53.590;10.002;2022-10-28T04:50:27;10.23;;;5.93;;
17345;SDS011;8790;53.590;10.002;2022-10-28T04:53:00;8.97;;;5.80;;
17345;SDS011;8790;53.590;10.002;2022-10-28T04:55:32;10.30;;;5.90;;
17345;SDS011;8790;53.590;10.002;2022-10-28T04:58:04;9.93;;;5.67;;
17345;SDS011;8790;53.590;10.002;2022-10-28T05:00:35;10.27;;;6.07;;
17345;SDS011;8790;53.590;10.002;2022-10-28T05:03:07;9.23;;;5.50;;
17345;SDS011;8790;53.590;10.002;2022-10-28T05:05:39;8.23;;;5.60;;
17345;SDS011;8790;53.590;10.002;2022-10-28T05:08:12;11.03;;;5.93;;
17345;SDS011;8790;53.590;10.002;2022-10-28T05:10:44;11.03;;;6.13;;
17345;SDS011;8790;53.590;10.002;2022-10-28T05:13:19;10.63;;;5.70;;
17345;SDS011;8790;53.590;10.002;2022-10-28T05:15:50;9.57;;;6.07;;
17345;SDS011;8790;53.590;10.002;2022-10-28T05:18:22;9.53;;;5.87;;
17345;SDS011;8790;53.590;10.002;2022-10-28T05:20:54;11.47;;;5.73;;
17345;SDS011;8790;53.590;10.002;2022-10-28T05:23:27;8.73;;;5.93;;
17345;SDS011;8790;53.590;10.002;2022-10-28T05:25:59;8.77;;;5.77;;
17345;SDS011;8790;53.590;10.002;2022-10-28T05:28:30;12.97;;;6.13;;
17345;SDS011;8790;53.590;10.002;2022-10-28T05:31:02;9.63;;;6.00;;
17345;SDS011;8790;53.590;10.002;2022-10-28T05:33:34;10.67;;;6.40;;
17345;SDS011;8790;53.590;10.002;2022-10-28T05:36:06;10.43;;;5.87;;
17345;SDS011;8790;53.590;10.002;2022-10-28T05:38:39;8.63;;;6.00;;
17345;SDS011;8790;53.590;10.002;2022-10-28T05:41:14;12.33;;;6.07;;
17345;SDS011;8790;53.590;10.002;2022-10-28T05:43:45;10.17;;;6.13;;
17345;SDS011;8790;53.590;10.002;2022-10-28T05:46:17;13.13;;;8.07;;
17345;SDS011;8790;53.590;10.002;2022-10-28T05:48:51;14.07;;;6.47;;
17345;SDS011;8790;53.590;10.002;2022-10-28T05:51:22;9.27;;;5.87;;
17345;SDS011;8790;53.590;10.002;2022-10-28T05:53:56;11.83;;;6.70;;
17345;SDS011;8790;53.590;10.002;2022-10-28T05:56:27;7.97;;;6.03;;
17345;SDS011;8790;53.590;10.002;2022-10-28T05:58:59;11.03;;;6.30;;
17345;SDS011;8790;53.590;10.002;2022-10-28T06:01:31;11.80;;;6.50;;
17345;SDS011;8790;53.590;10.002;2022-10-28T06:04:03;11.40;;;6.67;;
17345;SDS011;8790;53.590;10.002;2022-10-28T06:06:35;12.87;;;6.60;;
17345;SDS011;8790;53.590;10.002;2022-10-28T06:09:08;11.20;;;5.97;;
17345;SDS011;8790;53.590;10.002;2022-10-28T06:11:40;11.43;;;6.50;;
17345;SDS011;8790;53.590;10.002;2022-10-28T06:14:11;14.40;;;6.53;;
17345;SDS011;8790;53.590;10.002;2022-10-28T06:16:44;12.60;;;6.90;;
17345;SDS011;8790;53.590;10.002;2022-10-28T06:19:16;9.37;;;6.63;;
17345;SDS011;8790;53.590;10.002;2022-10-28T06:21:48;10.63;;;6.60;;
17345;SDS011;8790;53.590;10.002;2022-10-28T06:24:21;12.63;;;8.70;;
17345;SDS011;8790;53.590;10.002;2022-10-28T06:26:52;11.93;;;7.63;;
17345;SDS011;8790;53.590;10.002;2022-10-28T06:29:24;13.53;;;7.07;;
17345;SDS011;8790;53.590;10.002;2022-10-28T06:31:56;9.50;;;6.60;;
17345;SDS011;8790;53.590;10.002;2022-10-28T06:34:28;9.63;;;6.13;;
17345;SDS011;8790;53.590;10.002;2022-10-28T06:36:59;10.20;;;7.03;;
17345;SDS011;8790;53.590;10.002;2022-10-28T06:39:32;12.23;;;7.07;;
17345;SDS011;8790;53.590;10.002;2022-10-28T06:42:04;10.97;;;6.70;;
17345;SDS011;8790;53.590;10.002;2022-10-28T06:44:36;11.20;;;6.23;;
17345;SDS011;8790;53.590;10.002;2022-10-28T06:47:09;9.83;;;7.23;;
17345;SDS011;8790;53.590;10.002;2022-10-28T06:49:40;13.93;;;7.40;;
17345;SDS011;8790;53.590;10.002;2022-10-28T06:52:12;12.67;;;7.50;;
17345;SDS011;8790;53.590;10.002;2022-10-28T06:54:45;12.83;;;8.20;;
17345;SDS011;8790;53.590;10.002;2022-10-28T06:57:17;12.83;;;7.73;;
17345;SDS011;8790;53.590;10.002;2022-10-28T06:59:48;17.53;;;8.23;;
17345;SDS011;8790;53.590;10.002;2022-10-28T07:02:20;14.03;;;7.37;;
17345;SDS011;8790;53.590;10.002;2022-10-28T07:04:52;10.73;;;7.40;;
17345;SDS011;8790;53.590;10.002;2022-10-28T07:07:24;12.87;;;7.47;;
17345;SDS011;8790;53.590;10.002;2022-10-28T07:09:57;11.80;;;7.60;;
17345;SDS011;8790;53.590;10.002;2022-10-28T07:12:28;11.20;;;7.40;;
17345;SDS011;8790;53.590;10.002;2022-10-28T07:15:00;15.23;;;7.80;;
17345;SDS011;8790;53.590;10.002;2022-10-28T07:17:32;15.40;;;8.03;;
17345;SDS011;8790;53.590;10.002;2022-10-28T07:20:04;11.30;;;7.90;;
17345;SDS011;8790;53.590;10.002;2022-10-28T07:22:37;15.17;;;7.30;;
17345;SDS011;8790;53.590;10.002;2022-10-28T07:25:10;13.97;;;7.50;;
17345;SDS011;8790;53.590;10.002;2022-10-28T07:27:42;8.37;;;6.73;;
17345;SDS011;8790;53.590;10.002;2022-10-28T07:30:14;12.07;;;7.20;;
17345;SDS011;8790;53.590;10.002;2022-10-28T07:32:45;12.77;;;6.87;;
17345;SDS011;8790;53.590;10.002;2022-10-28T07:35:17;10.63;;;7.40;;
17345;SDS011;8790;53.590;10.002;2022-10-28T07:37:49;9.60;;;6.50;;
17345;SDS011;8790;53.590;10.002;2022-10-28T07:40:23;10.10;;;6.90;;
17345;SDS011;8790;53.590;10.002;2022-10-28T07:42:55;12.00;;;7.30;;
17345;SDS011;8790;53.590;10.002;2022-10-28T07:45:28;11.10;;;7.77;;
17345;SDS011;8790;53.590;10.002;2022-10-28T07:48:00;12.57;;;7.60;;
17345;SDS011;8790;53.590;10.002;2022-10-28T07:50:31;10.27;;;7.40;;
17345;SDS011;8790;53.590;10.002;2022-10-28T07:53:03;13.70;;;7.23;;
17345;SDS011;8790;53.590;10.002;2022-10-28T07:55:36;14.93;;;7.70;;
17345;SDS011;8790;53.590;10.002;2022-10-28T07:58:08;13.10;;;7.37;;
17345;SDS011;8790;53.590;10.002;2022-10-28T08:00:40;12.00;;;7.33;;
17345;SDS011;8790;53.590;10.002;2022-10-28T08:03:11;13.30;;;7.53;;
17345;SDS011;8790;53.590;10.002;2022-10-28T08:05:43;15.63;;;7.20;;
17345;SDS011;8790;53.590;10.002;2022-10-28T08:08:15;12.10;;;7.10;;
17345;SDS011;8790;53.590;10.002;2022-10-28T08:10:48;12.60;;;7.50;;
17345;SDS011;8790;53.590;10.002;2022-10-28T08:13:19;11.23;;;7.20;;
17345;SDS011;8790;53.590;10.002;2022-10-28T08:15:51;10.63;;;7.03;;
17345;SDS011;8790;53.590;10.002;2022-10-28T08:18:23;12.20;;;7.03;;
17345;SDS011;8790;53.590;10.002;2022-10-28T08:20:57;13.07;;;7.30;;
17345;SDS011;8790;53.590;10.002;2022-10-28T08:23:29;14.33;;;7.50;;
17345;SDS011;8790;53.590;10.002;2022-10-28T08:26:02;11.17;;;7.10;;
17345;SDS011;8790;53.590;10.002;2022-10-28T08:28:35;12.27;;;7.20;;
17345;SDS011;8790;53.590;10.002;2022-10-28T08:31:07;8.43;;;6.50;;
17345;SDS011;8790;53.590;10.002;2022-10-28T08:33:39;12.20;;;6.83;;
17345;SDS011;8790;53.590;10.002;2022-10-28T08:36:14;11.07;;;7.00;;
17345;SDS011;8790;53.590;10.002;2022-10-28T08:38:46;9.50;;;6.23;;
17345;SDS011;8790;53.590;10.002;2022-10-28T08:41:23;11.43;;;6.77;;
17345;SDS011;8790;53.590;10.002;2022-10-28T08:44:14;10.30;;;6.23;;
17345;SDS011;8790;53.590;10.002;2022-10-28T08:47:15;10.67;;;6.37;;
17345;SDS011;8790;53.590;10.002;2022-10-28T08:49:54;12.30;;;6.50;;
17345;SDS011;8790;53.590;10.002;2022-10-28T08:52:29;12.37;;;6.43;;
17345;SDS011;8790;53.590;10.002;2022-10-28T08:55:05;9.30;;;5.87;;
17345;SDS011;8790;53.590;10.002;2022-10-28T08:57:47;9.93;;;6.13;;
17345;SDS011;8790;53.590;10.002;2022-10-28T09:00:24;9.83;;;6.20;;
17345;SDS011;8790;53.590;10.002;2022-10-28T09:03:00;9.63;;;5.67;;
17345;SDS011;8790;53.590;10.002;2022-10-28T09:05:44;15.17;;;5.93;;
17345;SDS011;8790;53.590;10.002;2022-10-28T09:08:20;11.80;;;5.77;;
17345;SDS011;8790;53.590;10.002;2022-10-28T09:10:59;11.27;;;5.40;;
17345;SDS011;8790;53.590;10.002;2022-10-28T09:13:55;10.23;;;5.23;;
17345;SDS011;8790;53.590;10.002;2022-10-28T09:16:39;11.43;;;6.03;;
17345;SDS011;8790;53.590;10.002;2022-10-28T09:19:23;10.77;;;5.67;;
17345;SDS011;8790;53.590;10.002;2022-10-28T09:22:08;12.10;;;5.90;;
17345;SDS011;8790;53.590;10.002;2022-10-28T09:24:52;11.27;;;6.47;;
17345;SDS011;8790;53.590;10.002;2022-10-28T09:27:36;15.93;;;6.83;;
17345;SDS011;8790;53.590;10.002;2022-10-28T09:30:24;12.53;;;5.47;;
17345;SDS011;8790;53.590;10.002;2022-10-28T09:33:05;12.23;;;6.23;;
17345;SDS011;8790;53.590;10.002;2022-10-28T09:35:45;10.73;;;6.10;;
17345;SDS011;8790;53.590;10.002;2022-10-28T09:38:21;15.90;;;5.63;;
17345;SDS011;8790;53.590;10.002;2022-10-28T09:41:00;9.13;;;5.13;;
17345;SDS011;8790;53.590;10.002;2022-10-28T09:43:36;10.43;;;5.77;;
17345;SDS011;8790;53.590;10.002;2022-10-28T09:46:15;7.47;;;4.93;;
17345;SDS011;8790;53.590;10.002;2022-10-28T09:48:48;14.30;;;6.00;;
17345;SDS011;8790;53.590;10.002;2022-10-28T09:51:24;10.80;;;5.27;;
17345;SDS011;8790;53.590;10.002;2022-10-28T09:54:01;12.13;;;5.30;;
17345;SDS011;8790;53.590;10.002;2022-10-28T09:56:32;9.83;;;5.87;;
17345;SDS011;8790;53.590;10.002;2022-10-28T09:59:04;10.77;;;5.70;;
17345;SDS011;8790;53.590;10.002;2022-10-28T10:01:38;7.40;;;5.07;;
17345;SDS011;8790;53.590;10.002;2022-10-28T10:04:15;9.90;;;4.97;;
17345;SDS011;8790;53.590;10.002;2022-10-28T10:06:49;10.53;;;6.20;;
17345;SDS011;8790;53.590;10.002;2022-10-28T10:09:24;10.70;;;5.10;;
17345;SDS011;8790;53.590;10.002;2022-10-28T10:11:58;6.47;;;4.57;;
17345;SDS011;8790;53.590;10.002;2022-10-28T10:14:35;9.63;;;5.40;;
17345;SDS011;8790;53.590;10.002;2022-10-28T10:17:13;8.70;;;4.83;;
17345;SDS011;8790;53.590;10.002;2022-10-28T10:19:59;10.57;;;5.13;;
17345;SDS011;8790;53.590;10.002;2022-10-28T10:22:34;11.97;;;5.60;;
17345;SDS011;8790;53.590;10.002;2022-10-28T10:25:20;12.17;;;5.33;;
17345;SDS011;8790;53.590;10.002;2022-10-28T10:28:00;8.37;;;4.97;;
17345;SDS011;8790;53.590;10.002;2022-10-28T10:30:35;11.03;;;5.03;;
17345;SDS011;8790;53.590;10.002;2022-10-28T10:33:13;9.80;;;4.90;;
17345;SDS011;8790;53.590;10.002;2022-10-28T10:35:53;11.73;;;5.10;;
17345;SDS011;8790;53.590;10.002;2022-10-28T10:38:28;10.50;;;5.27;;
17345;SDS011;8790;53.590;10.002;2022-10-28T10:41:01;10.00;;;4.10;;
17345;SDS011;8790;53.590;10.002;2022-10-28T10:43:34;10.80;;;4.97;;
17345;SDS011;8790;53.590;10.002;2022-10-28T10:46:11;10.73;;;5.30;;
17345;SDS011;8790;53.590;10.002;2022-10-28T10:48:45;10.27;;;4.70;;
17345;SDS011;8790;53.590;10.002;2022-10-28T10:51:36;11.70;;;4.03;;
17345;SDS011;8790;53.590;10.002;2022-10-28T10:54:12;10.50;;;4.10;;
17345;SDS011;8790;53.590;10.002;2022-10-28T10:56:45;12.20;;;5.50;;
17345;SDS011;8790;53.590;10.002;2022-10-28T10:59:18;11.17;;;4.13;;
17345;SDS011;8790;53.590;10.002;2022-10-28T11:01:54;9.53;;;3.97;;
17345;SDS011;8790;53.590;10.002;2022-10-28T11:04:29;10.30;;;4.00;;
17345;SDS011;8790;53.590;10.002;2022-10-28T11:07:11;8.90;;;4.00;;
17345;SDS011;8790;53.590;10.002;2022-10-28T11:09:46;8.87;;;3.90;;
17345;SDS011;8790;53.590;10.002;2022-10-28T11:12:26;10.65;;;4.43;;
17345;SDS011;8790;53.590;10.002;2022-10-28T11:15:01;11.33;;;4.03;;
17345;SDS011;8790;53.590;10.002;2022-10-28T11:17:54;7.77;;;3.67;;
17345;SDS011;8790;53.590;10.002;2022-10-28T11:20:31;9.57;;;3.78;;
17345;SDS011;8790;53.590;10.002;2022-10-28T11:23:22;11.05;;;4.72;;
17345;SDS011;8790;53.590;10.002;2022-10-28T11:26:05;6.22;;;3.80;;
17345;SDS011;8790;53.590;10.002;2022-10-28T11:28:49;11.45;;;3.80;;
17345;SDS011;8790;53.590;10.002;2022-10-28T11:31:40;10.27;;;3.85;;
17345;SDS011;8790;53.590;10.002;2022-10-28T11:34:29;9.20;;;4.18;;
17345;SDS011;8790;53.590;10.002;2022-10-28T11:37:23;11.38;;;3.83;;
17345;SDS011;8790;53.590;10.002;2022-10-28T11:40:09;11.27;;;3.75;;
17345;SDS011;8790;53.590;10.002;2022-10-28T11:43:15;9.13;;;3.95;;
17345;SDS011;8790;53.590;10.002;2022-10-28T11:45:53;9.75;;;3.80;;
17345;SDS011;8790;53.590;10.002;2022-10-28T11:48:37;12.43;;;4.22;;
17345;SDS011;8790;53.590;10.002;2022-10-28T11:51:17;10.68;;;3.95;;
17345;SDS011;8790;53.590;10.002;2022-10-28T11:54:13;9.85;;;4.18;;
17345;SDS011;8790;53.590;10.002;2022-10-28T11:56:58;8.82;;;3.95;;
17345;SDS011;8790;53.590;10.002;2022-10-28T12:05:42;8.45;;;3.42;;
17345;SDS011;8790;53.590;10.002;2022-10-28T12:08:20;10.52;;;4.07;;
17345;SDS011;8790;53.590;10.002;2022-10-28T12:11:09;8.50;;;3.67;;
17345;SDS011;8790;53.590;10.002;2022-10-28T12:13:53;13.43;;;3.97;;
17345;SDS011;8790;53.590;10.002;2022-10-28T12:16:32;11.15;;;4.03;;
17345;SDS011;8790;53.590;10.002;2022-10-28T12:19:11;11.18;;;4.60;;
17345;SDS011;8790;53.590;10.002;2022-10-28T12:21:51;9.35;;;4.13;;
17345;SDS011;8790;53.590;10.002;2022-10-28T12:24:29;11.75;;;4.07;;
17345;SDS011;8790;53.590;10.002;2022-10-28T12:27:09;10.23;;;3.95;;
17345;SDS011;8790;53.590;10.002;2022-10-28T12:29:45;9.82;;;3.85;;
17345;SDS011;8790;53.590;10.002;2022-10-28T12:32:21;10.98;;;4.03;;
17345;SDS011;8790;53.590;10.002;2022-10-28T12:34:58;10.63;;;3.90;;
17345;SDS011;8790;53.590;10.002;2022-10-28T12:37:35;8.93;;;3.83;;
17345;SDS011;8790;53.590;10.002;2022-10-28T12:40:11;10.30;;;3.80;;
17345;SDS011;8790;53.590;10.002;2022-10-28T12:42:49;12.90;;;4.45;;
17345;SDS011;8790;53.590;10.002;2022-10-28T12:45:25;9.10;;;4.40;;
17345;SDS011;8790;53.590;10.002;2022-10-28T12:48:02;11.43;;;3.78;;
17345;SDS011;8790;53.590;10.002;2022-10-28T12:50:38;8.13;;;3.83;;
17345;SDS011;8790;53.590;10.002;2022-10-28T12:53:17;9.50;;;3.58;;
17345;SDS011;8790;53.590;10.002;2022-10-28T12:55:58;9.60;;;4.20;;
17345;SDS011;8790;53.590;10.002;2022-10-28T12:58:34;13.50;;;3.90;;
17345;SDS011;8790;53.590;10.002;2022-10-28T13:01:08;8.60;;;3.90;;
17345;SDS011;8790;53.590;10.002;2022-10-28T13:03:42;8.48;;;4.40;;
17345;SDS011;8790;53.590;10.002;2022-10-28T13:06:25;11.88;;;4.18;;
17345;SDS011;8790;53.590;10.002;2022-10-28T13:09:14;9.98;;;3.63;;
17345;SDS011;8790;53.590;10.002;2022-10-28T13:12:14;11.60;;;3.83;;
17345;SDS011;8790;53.590;10.002;2022-10-28T13:15:18;10.45;;;4.32;;
17345;SDS011;8790;53.590;10.002;2022-10-28T13:18:02;11.20;;;4.03;;
17345;SDS011;8790;53.590;10.002;2022-10-28T13:20:52;9.88;;;4.47;;
17345;SDS011;8790;53.590;10.002;2022-10-28T13:23:33;11.18;;;4.07;;
17345;SDS011;8790;53.590;10.002;2022-10-28T13:26:14;9.55;;;3.90;;
17345;SDS011;8790;53.590;10.002;2022-10-28T13:28:52;9.48;;;4.38;;
17345;SDS011;8790;53.590;10.002;2022-10-28T13:31:35;9.38;;;3.70;;
17345;SDS011;8790;53.590;10.002;2022-10-28T13:34:09;11.40;;;4.35;;
17345;SDS011;8790;53.590;10.002;2022-10-28T13:36:43;7.55;;;3.70;;
17345;SDS011;8790;53.590;10.002;2022-10-28T13:39:22;13.52;;;4.45;;
17345;SDS011;8790;53.590;10.002;2022-10-28T13:45:42;7.45;;;3.80;;
17345;SDS011;8790;53.590;10.002;2022-10-28T13:48:42;13.18;;;4.40;;
17345;SDS011;8790;53.590;10.002;2022-10-28T13:51:28;9.48;;;4.25;;
17345;SDS011;8790;53.590;10.002;2022-10-28T13:54:13;10.05;;;4.10;;
17345;SDS011;8790;53.590;10.002;2022-10-28T13:56:59;10.02;;;4.35;;
17345;SDS011;8790;53.590;10.002;2022-10-28T13:59:39;15.07;;;7.80;;
17345;SDS011;8790;53.590;10.002;2022-10-28T14:02:20;11.85;;;4.40;;
17345;SDS011;8790;53.590;10.002;2022-10-28T14:04:59;9.32;;;4.15;;
17345;SDS011;8790;53.590;10.002;2022-10-28T14:07:33;9.38;;;4.47;;
17345;SDS011;8790;53.590;10.002;2022-10-28T14:10:13;9.20;;;4.07;;
17345;SDS011;8790;53.590;10.002;2022-10-28T14:12:51;10.57;;;4.03;;
17345;SDS011;8790;53.590;10.002;2022-10-28T14:15:27;11.13;;;4.28;;
17345;SDS011;8790;53.590;10.002;2022-10-28T14:18:01;13.95;;;4.18;;
17345;SDS011;8790;53.590;10.002;2022-10-28T14:20:37;11.57;;;4.30;;
17345;SDS011;8790;53.590;10.002;2022-10-28T14:30:16;8.15;;;3.88;;
17345;SDS011;8790;53.590;10.002;2022-10-28T14:35:53;11.82;;;4.30;;
17345;SDS011;8790;53.590;10.002;2022-10-28T14:38:57;10.18;;;4.35;;
17345;SDS011;8790;53.590;10.002;2022-10-28T14:42:01;9.15;;;4.20;;
17345;SDS011;8790;53.590;10.002;2022-10-28T14:45:02;9.75;;;4.70;;
17345;SDS011;8790;53.590;10.002;2022-10-28T14:48:00;11.88;;;4.35;;
17345;SDS011;8790;53.590;10.002;2022-10-28T14:50:55;11.35;;;4.40;;
17345;SDS011;8790;53.590;10.002;2022-10-28T14:53:29;9.20;;;4.40;;
17345;SDS011;8790;53.590;10.002;2022-10-28T14:56:04;12.23;;;4.35;;
17345;SDS011;8790;53.590;10.002;2022-10-28T14:58:40;7.85;;;4.10;;
17345;SDS011;8790;53.590;10.002;2022-10-28T15:01:23;10.20;;;4.00;;
17345;SDS011;8790;53.590;10.002;2022-10-28T15:03:57;11.82;;;4.30;;
17345;SDS011;8790;53.590;10.002;2022-10-28T15:06:34;11.85;;;4.35;;
17345;SDS011;8790;53.590;10.002;2022-10-28T15:09:14;10.82;;;4.40;;
17345;SDS011;8790;53.590;10.002;2022-10-28T15:11:49;11.98;;;4.60;;
17345;SDS011;8790;53.590;10.002;2022-10-28T15:14:26;10.30;;;4.85;;
17345;SDS011;8790;53.590;10.002;2022-10-28T15:17:08;11.25;;;4.35;;
17345;SDS011;8790;53.590;10.002;2022-10-28T15:19:43;12.98;;;5.85;;
17345;SDS011;8790;53.590;10.002;2022-10-28T15:22:19;12.75;;;5.30;;
17345;SDS011;8790;53.590;10.002;2022-10-28T15:24:53;12.98;;;6.95;;
17345;SDS011;8790;53.590;10.002;2022-10-28T15:27:27;15.27;;;9.35;;
17345;SDS011;8790;53.590;10.002;2022-10-28T15:30:00;20.77;;;11.55;;
17345;SDS011;8790;53.590;10.002;2022-10-28T15:32:33;21.27;;;10.02;;
17345;SDS011;8790;53.590;10.002;2022-10-28T15:38:24;16.23;;;8.75;;
17345;SDS011;8790;53.590;10.002;2022-10-28T15:44:23;15.52;;;8.43;;
17345;SDS011;8790;53.590;10.002;2022-10-28T15:47:06;20.42;;;13.15;;
17345;SDS011;8790;53.590;10.002;2022-10-28T15:49:55;18.65;;;10.20;;
17345;SDS011;8790;53.590;10.002;2022-10-28T15:52:34;16.10;;;9.25;;
17345;SDS011;8790;53.590;10.002;2022-10-28T15:55:28;17.17;;;8.47;;
17345;SDS011;8790;53.590;10.002;2022-10-28T15:58:02;15.65;;;8.07;;
17345;SDS011;8790;53.590;10.002;2022-10-28T16:00:55;12.55;;;6.90;;
17345;SDS011;8790;53.590;10.002;2022-10-28T16:03:40;15.55;;;7.28;;
17345;SDS011;8790;53.590;10.002;2022-10-28T16:06:18;12.98;;;7.18;;
17345;SDS011;8790;53.590;10.002;2022-10-28T16:09:01;14.80;;;7.00;;
17345;SDS011;8790;53.590;10.002;2022-10-28T16:11:48;15.00;;;7.05;;